<?xml version="1.0" encoding="UTF-8" standalone="no" ?>
<gpx xmlns="http://www.topografix.com/GPX/1/1" xmlns:xsi="http://www.w3.org/2001/XMLSchema-instance" xsi:schemaLocation="http://www.topografix.com/GPX/1/1 http://www.topografix.com/GPX/1/1/gpx.xsd" version="1.1" creator="VisuGPX - https://www.visugpx.com">
  <metadata>
    <name>31: Moulès - Fondamente</name>
    <desc><![CDATA[31: Moulès - Fondamente]]></desc>
  </metadata>
  <wpt lat="43.83631" lon="3.12279">
    <ele>520</ele>
    <name><![CDATA[Accueil PdC Centre]]></name>
  </wpt>
  <wpt lat="43.83694" lon="3.12356">
    <ele>530.1</ele>
    <name><![CDATA[PCA]]></name>
  </wpt>
  <wpt lat="43.83874" lon="3.12406">
    <ele>535.1</ele>
    <name><![CDATA[STX]]></name>
  </wpt>
  <wpt lat="43.84118" lon="3.12222">
    <ele>585.1</ele>
    <name><![CDATA[TNA]]></name>
  </wpt>
  <wpt lat="43.84347" lon="3.1212">
    <ele>625</ele>
    <name><![CDATA[TNB]]></name>
  </wpt>
  <wpt lat="43.84501" lon="3.12207">
    <ele>660.1</ele>
    <name><![CDATA[HSM]]></name>
  </wpt>
  <wpt lat="43.84756" lon="3.12169">
    <ele>655</ele>
    <name><![CDATA[TNC]]></name>
  </wpt>
  <wpt lat="43.84815" lon="3.12111">
    <ele>655</ele>
    <name><![CDATA[RDA]]></name>
  </wpt>
  <wpt lat="43.85106" lon="3.1153">
    <ele>644.9</ele>
    <name><![CDATA[TUN]]></name>
  </wpt>
  <wpt lat="43.85392" lon="3.10742">
    <ele>630</ele>
    <name><![CDATA[CTR]]></name>
  </wpt>
  <wpt lat="43.85688" lon="3.10844">
    <ele>619.9</ele>
    <name><![CDATA[BDR]]></name>
  </wpt>
  <wpt lat="43.85942" lon="3.10476">
    <ele>594.9</ele>
    <name><![CDATA[BRQ]]></name>
  </wpt>
  <wpt lat="43.86012" lon="3.09908">
    <ele>564.9</ele>
    <name><![CDATA[MOU]]></name>
  </wpt>
  <wpt lat="43.86388" lon="3.0962">
    <ele>545</ele>
    <name><![CDATA[MLS]]></name>
  </wpt>
  <wpt lat="43.86658" lon="3.10536">
    <ele>460.1</ele>
    <name><![CDATA[GMG]]></name>
  </wpt>
  <wpt lat="43.86847" lon="3.10884">
    <ele>470</ele>
    <name><![CDATA[GMP]]></name>
  </wpt>
  <wpt lat="43.86901" lon="3.10908">
    <ele>470</ele>
    <name><![CDATA[FMA]]></name>
  </wpt>
  <wpt lat="43.87018" lon="3.11201">
    <ele>481</ele>
    <name><![CDATA[FMB]]></name>
  </wpt>
  <wpt lat="43.87145" lon="3.11856">
    <ele>495</ele>
    <name><![CDATA[FMC]]></name>
  </wpt>
  <wpt lat="43.87537" lon="3.12229">
    <ele>475</ele>
    <name><![CDATA[FMD]]></name>
  </wpt>
  <wpt lat="43.87615" lon="3.12211">
    <ele>475</ele>
    <name><![CDATA[FDM]]></name>
  </wpt>
  <trk>
    <name><![CDATA[RoTr 31 PdC]]></name>
    <trkseg>
      <trkpt lat="43.83695" lon="3.12355">
        <ele>527</ele>
        <time>2010-01-01T00:00:00Z</time>
      </trkpt>
      <trkpt lat="43.83733" lon="3.12362">
        <ele>531</ele>
        <time>2010-01-01T00:00:56Z</time>
      </trkpt>
      <trkpt lat="43.83794" lon="3.12335">
        <ele>533</ele>
        <time>2010-01-01T00:02:31Z</time>
      </trkpt>
      <trkpt lat="43.83807" lon="3.12322">
        <ele>535</ele>
        <time>2010-01-01T00:02:55Z</time>
      </trkpt>
      <trkpt lat="43.83818" lon="3.1232">
        <ele>536</ele>
        <time>2010-01-01T00:03:12Z</time>
      </trkpt>
      <trkpt lat="43.83829" lon="3.1235">
        <ele>534</ele>
        <time>2010-01-01T00:03:46Z</time>
      </trkpt>
      <trkpt lat="43.83845" lon="3.1238">
        <ele>539</ele>
        <time>2010-01-01T00:04:27Z</time>
      </trkpt>
      <trkpt lat="43.83875" lon="3.12399">
        <ele>543</ele>
        <time>2010-01-01T00:05:16Z</time>
      </trkpt>
      <trkpt lat="43.83877" lon="3.12399">
        <ele>543</ele>
        <time>2010-01-01T00:05:18Z</time>
      </trkpt>
      <trkpt lat="43.83889" lon="3.12396">
        <ele>544</ele>
        <time>2010-01-01T00:05:37Z</time>
      </trkpt>
      <trkpt lat="43.83903" lon="3.12399">
        <ele>546</ele>
        <time>2010-01-01T00:05:58Z</time>
      </trkpt>
      <trkpt lat="43.8391" lon="3.12388">
        <ele>546</ele>
        <time>2010-01-01T00:06:14Z</time>
      </trkpt>
      <trkpt lat="43.83976" lon="3.12371">
        <ele>555</ele>
        <time>2010-01-01T00:07:53Z</time>
      </trkpt>
      <trkpt lat="43.84019" lon="3.12363">
        <ele>563</ele>
        <time>2010-01-01T00:08:57Z</time>
      </trkpt>
      <trkpt lat="43.84043" lon="3.12315">
        <ele>571</ele>
        <time>2010-01-01T00:09:59Z</time>
      </trkpt>
      <trkpt lat="43.8407" lon="3.12278">
        <ele>577</ele>
        <time>2010-01-01T00:10:56Z</time>
      </trkpt>
      <trkpt lat="43.84119" lon="3.12224">
        <ele>589</ele>
        <time>2010-01-01T00:12:29Z</time>
      </trkpt>
      <trkpt lat="43.84119" lon="3.12222">
        <ele>589</ele>
        <time>2010-01-01T00:12:30Z</time>
      </trkpt>
      <trkpt lat="43.8416" lon="3.12194">
        <ele>599</ele>
        <time>2010-01-01T00:13:38Z</time>
      </trkpt>
      <trkpt lat="43.84251" lon="3.12109">
        <ele>626</ele>
        <time>2010-01-01T00:16:21Z</time>
      </trkpt>
      <trkpt lat="43.84345" lon="3.12119">
        <ele>633</ele>
        <time>2010-01-01T00:18:40Z</time>
      </trkpt>
      <trkpt lat="43.84346" lon="3.12119">
        <ele>633</ele>
        <time>2010-01-01T00:18:42Z</time>
      </trkpt>
      <trkpt lat="43.84398" lon="3.12126">
        <ele>642</ele>
        <time>2010-01-01T00:20:00Z</time>
      </trkpt>
      <trkpt lat="43.84417" lon="3.12126">
        <ele>646</ele>
        <time>2010-01-01T00:20:28Z</time>
      </trkpt>
      <trkpt lat="43.8445" lon="3.12149">
        <ele>649</ele>
        <time>2010-01-01T00:21:22Z</time>
      </trkpt>
      <trkpt lat="43.84469" lon="3.12166">
        <ele>651</ele>
        <time>2010-01-01T00:21:55Z</time>
      </trkpt>
      <trkpt lat="43.84492" lon="3.12197">
        <ele>655</ele>
        <time>2010-01-01T00:22:43Z</time>
      </trkpt>
      <trkpt lat="43.84512" lon="3.12235">
        <ele>656</ele>
        <time>2010-01-01T00:23:34Z</time>
      </trkpt>
      <trkpt lat="43.84512" lon="3.12235">
        <ele>656</ele>
        <time>2010-01-01T00:23:34Z</time>
      </trkpt>
      <trkpt lat="43.84516" lon="3.1224">
        <ele>656</ele>
        <time>2010-01-01T00:23:41Z</time>
      </trkpt>
      <trkpt lat="43.84545" lon="3.12228">
        <ele>660</ele>
        <time>2010-01-01T00:24:26Z</time>
      </trkpt>
      <trkpt lat="43.84568" lon="3.12166">
        <ele>663</ele>
        <time>2010-01-01T00:25:41Z</time>
      </trkpt>
      <trkpt lat="43.84581" lon="3.12157">
        <ele>664</ele>
        <time>2010-01-01T00:26:03Z</time>
      </trkpt>
      <trkpt lat="43.84635" lon="3.12174">
        <ele>663</ele>
        <time>2010-01-01T00:27:25Z</time>
      </trkpt>
      <trkpt lat="43.84656" lon="3.12167">
        <ele>662</ele>
        <time>2010-01-01T00:27:57Z</time>
      </trkpt>
      <trkpt lat="43.84677" lon="3.12152">
        <ele>661</ele>
        <time>2010-01-01T00:28:32Z</time>
      </trkpt>
      <trkpt lat="43.84722" lon="3.12147">
        <ele>659</ele>
        <time>2010-01-01T00:29:39Z</time>
      </trkpt>
      <trkpt lat="43.84754" lon="3.12165">
        <ele>657</ele>
        <time>2010-01-01T00:30:31Z</time>
      </trkpt>
      <trkpt lat="43.84756" lon="3.12167">
        <ele>657</ele>
        <time>2010-01-01T00:30:33Z</time>
      </trkpt>
      <trkpt lat="43.84802" lon="3.12119">
        <ele>656</ele>
        <time>2010-01-01T00:31:58Z</time>
      </trkpt>
      <trkpt lat="43.84811" lon="3.12113">
        <ele>656</ele>
        <time>2010-01-01T00:32:13Z</time>
      </trkpt>
      <trkpt lat="43.84813" lon="3.12109">
        <ele>656</ele>
        <time>2010-01-01T00:32:18Z</time>
      </trkpt>
      <trkpt lat="43.84815" lon="3.12099">
        <ele>656</ele>
        <time>2010-01-01T00:32:29Z</time>
      </trkpt>
      <trkpt lat="43.84865" lon="3.12049">
        <ele>656</ele>
        <time>2010-01-01T00:34:02Z</time>
      </trkpt>
      <trkpt lat="43.84925" lon="3.11968">
        <ele>655</ele>
        <time>2010-01-01T00:36:06Z</time>
      </trkpt>
      <trkpt lat="43.84993" lon="3.11835">
        <ele>654</ele>
        <time>2010-01-01T00:38:59Z</time>
      </trkpt>
      <trkpt lat="43.85097" lon="3.11633">
        <ele>648</ele>
        <time>2010-01-01T00:43:25Z</time>
      </trkpt>
      <trkpt lat="43.85111" lon="3.1158">
        <ele>646</ele>
        <time>2010-01-01T00:44:25Z</time>
      </trkpt>
      <trkpt lat="43.85108" lon="3.11533">
        <ele>643</ele>
        <time>2010-01-01T00:45:16Z</time>
      </trkpt>
      <trkpt lat="43.85102" lon="3.11517">
        <ele>643</ele>
        <time>2010-01-01T00:45:36Z</time>
      </trkpt>
      <trkpt lat="43.85102" lon="3.11515">
        <ele>643</ele>
        <time>2010-01-01T00:45:38Z</time>
      </trkpt>
      <trkpt lat="43.8509" lon="3.11502">
        <ele>645</ele>
        <time>2010-01-01T00:46:00Z</time>
      </trkpt>
      <trkpt lat="43.8501" lon="3.1145">
        <ele>644</ele>
        <time>2010-01-01T00:48:11Z</time>
      </trkpt>
      <trkpt lat="43.8495" lon="3.11416">
        <ele>647</ele>
        <time>2010-01-01T00:49:47Z</time>
      </trkpt>
      <trkpt lat="43.84938" lon="3.11397">
        <ele>649</ele>
        <time>2010-01-01T00:50:14Z</time>
      </trkpt>
      <trkpt lat="43.84944" lon="3.1138">
        <ele>648</ele>
        <time>2010-01-01T00:50:34Z</time>
      </trkpt>
      <trkpt lat="43.84948" lon="3.11356">
        <ele>647</ele>
        <time>2010-01-01T00:51:00Z</time>
      </trkpt>
      <trkpt lat="43.84945" lon="3.11311">
        <ele>650</ele>
        <time>2010-01-01T00:51:49Z</time>
      </trkpt>
      <trkpt lat="43.84954" lon="3.11298">
        <ele>650</ele>
        <time>2010-01-01T00:52:08Z</time>
      </trkpt>
      <trkpt lat="43.84964" lon="3.11296">
        <ele>649</ele>
        <time>2010-01-01T00:52:23Z</time>
      </trkpt>
      <trkpt lat="43.84996" lon="3.11306">
        <ele>643</ele>
        <time>2010-01-01T00:53:12Z</time>
      </trkpt>
      <trkpt lat="43.85018" lon="3.11296">
        <ele>640</ele>
        <time>2010-01-01T00:53:46Z</time>
      </trkpt>
      <trkpt lat="43.85039" lon="3.11276">
        <ele>638</ele>
        <time>2010-01-01T00:54:24Z</time>
      </trkpt>
      <trkpt lat="43.85063" lon="3.11246">
        <ele>637</ele>
        <time>2010-01-01T00:55:12Z</time>
      </trkpt>
      <trkpt lat="43.85075" lon="3.11208">
        <ele>637</ele>
        <time>2010-01-01T00:55:56Z</time>
      </trkpt>
      <trkpt lat="43.8508" lon="3.11143">
        <ele>639</ele>
        <time>2010-01-01T00:57:06Z</time>
      </trkpt>
      <trkpt lat="43.85079" lon="3.11023">
        <ele>646</ele>
        <time>2010-01-01T00:59:15Z</time>
      </trkpt>
      <trkpt lat="43.85084" lon="3.11005">
        <ele>646</ele>
        <time>2010-01-01T00:59:35Z</time>
      </trkpt>
      <trkpt lat="43.85096" lon="3.11001">
        <ele>646</ele>
        <time>2010-01-01T00:59:54Z</time>
      </trkpt>
      <trkpt lat="43.85149" lon="3.11025">
        <ele>636</ele>
        <time>2010-01-01T01:01:16Z</time>
      </trkpt>
      <trkpt lat="43.85187" lon="3.11026">
        <ele>630</ele>
        <time>2010-01-01T01:02:12Z</time>
      </trkpt>
      <trkpt lat="43.85229" lon="3.11018">
        <ele>625</ele>
        <time>2010-01-01T01:03:15Z</time>
      </trkpt>
      <trkpt lat="43.85242" lon="3.11004">
        <ele>627</ele>
        <time>2010-01-01T01:03:39Z</time>
      </trkpt>
      <trkpt lat="43.8525" lon="3.10979">
        <ele>630</ele>
        <time>2010-01-01T01:04:08Z</time>
      </trkpt>
      <trkpt lat="43.85269" lon="3.10817">
        <ele>639</ele>
        <time>2010-01-01T01:07:04Z</time>
      </trkpt>
      <trkpt lat="43.85275" lon="3.10731">
        <ele>644</ele>
        <time>2010-01-01T01:08:36Z</time>
      </trkpt>
      <trkpt lat="43.85274" lon="3.10683">
        <ele>646</ele>
        <time>2010-01-01T01:09:27Z</time>
      </trkpt>
      <trkpt lat="43.85281" lon="3.10673">
        <ele>646</ele>
        <time>2010-01-01T01:09:42Z</time>
      </trkpt>
      <trkpt lat="43.85289" lon="3.10671">
        <ele>645</ele>
        <time>2010-01-01T01:09:54Z</time>
      </trkpt>
      <trkpt lat="43.85302" lon="3.10679">
        <ele>643</ele>
        <time>2010-01-01T01:10:14Z</time>
      </trkpt>
      <trkpt lat="43.85342" lon="3.10736">
        <ele>630</ele>
        <time>2010-01-01T01:11:40Z</time>
      </trkpt>
      <trkpt lat="43.85361" lon="3.10745">
        <ele>628</ele>
        <time>2010-01-01T01:12:10Z</time>
      </trkpt>
      <trkpt lat="43.85388" lon="3.10742">
        <ele>629</ele>
        <time>2010-01-01T01:12:50Z</time>
      </trkpt>
      <trkpt lat="43.8539" lon="3.10741">
        <ele>629</ele>
        <time>2010-01-01T01:12:53Z</time>
      </trkpt>
      <trkpt lat="43.85525" lon="3.10753">
        <ele>631</ele>
        <time>2010-01-01T01:16:14Z</time>
      </trkpt>
      <trkpt lat="43.85564" lon="3.10781">
        <ele>631</ele>
        <time>2010-01-01T01:17:19Z</time>
      </trkpt>
      <trkpt lat="43.85605" lon="3.1083">
        <ele>626</ele>
        <time>2010-01-01T01:18:39Z</time>
      </trkpt>
      <trkpt lat="43.8569" lon="3.1084">
        <ele>623</ele>
        <time>2010-01-01T01:20:46Z</time>
      </trkpt>
      <trkpt lat="43.85693" lon="3.10841">
        <ele>622</ele>
        <time>2010-01-01T01:20:50Z</time>
      </trkpt>
      <trkpt lat="43.85741" lon="3.10825">
        <ele>619</ele>
        <time>2010-01-01T01:22:03Z</time>
      </trkpt>
      <trkpt lat="43.85756" lon="3.10801">
        <ele>622</ele>
        <time>2010-01-01T01:22:37Z</time>
      </trkpt>
      <trkpt lat="43.85778" lon="3.10759">
        <ele>625</ele>
        <time>2010-01-01T01:23:32Z</time>
      </trkpt>
      <trkpt lat="43.85831" lon="3.10701">
        <ele>619</ele>
        <time>2010-01-01T01:25:13Z</time>
      </trkpt>
      <trkpt lat="43.85858" lon="3.1067">
        <ele>618</ele>
        <time>2010-01-01T01:26:05Z</time>
      </trkpt>
      <trkpt lat="43.85883" lon="3.10638">
        <ele>613</ele>
        <time>2010-01-01T01:26:55Z</time>
      </trkpt>
      <trkpt lat="43.85919" lon="3.10618">
        <ele>605</ele>
        <time>2010-01-01T01:27:53Z</time>
      </trkpt>
      <trkpt lat="43.85923" lon="3.10573">
        <ele>605</ele>
        <time>2010-01-01T01:28:41Z</time>
      </trkpt>
      <trkpt lat="43.85936" lon="3.1054">
        <ele>602</ele>
        <time>2010-01-01T01:29:21Z</time>
      </trkpt>
      <trkpt lat="43.85934" lon="3.10506">
        <ele>604</ele>
        <time>2010-01-01T01:29:58Z</time>
      </trkpt>
      <trkpt lat="43.85941" lon="3.10475">
        <ele>602</ele>
        <time>2010-01-01T01:30:33Z</time>
      </trkpt>
      <trkpt lat="43.85942" lon="3.10471">
        <ele>602</ele>
        <time>2010-01-01T01:30:37Z</time>
      </trkpt>
      <trkpt lat="43.85956" lon="3.10441">
        <ele>599</ele>
        <time>2010-01-01T01:31:15Z</time>
      </trkpt>
      <trkpt lat="43.85973" lon="3.10439">
        <ele>596</ele>
        <time>2010-01-01T01:31:41Z</time>
      </trkpt>
      <trkpt lat="43.85994" lon="3.10404">
        <ele>592</ele>
        <time>2010-01-01T01:32:29Z</time>
      </trkpt>
      <trkpt lat="43.86003" lon="3.10314">
        <ele>588</ele>
        <time>2010-01-01T01:34:07Z</time>
      </trkpt>
      <trkpt lat="43.85992" lon="3.10254">
        <ele>588</ele>
        <time>2010-01-01T01:35:12Z</time>
      </trkpt>
      <trkpt lat="43.85981" lon="3.10217">
        <ele>587</ele>
        <time>2010-01-01T01:35:55Z</time>
      </trkpt>
      <trkpt lat="43.85984" lon="3.10115">
        <ele>579</ele>
        <time>2010-01-01T01:37:44Z</time>
      </trkpt>
      <trkpt lat="43.85968" lon="3.10029">
        <ele>576</ele>
        <time>2010-01-01T01:39:20Z</time>
      </trkpt>
      <trkpt lat="43.85969" lon="3.09973">
        <ele>572</ele>
        <time>2010-01-01T01:40:19Z</time>
      </trkpt>
      <trkpt lat="43.86009" lon="3.09922">
        <ele>565</ele>
        <time>2010-01-01T01:41:40Z</time>
      </trkpt>
      <trkpt lat="43.86011" lon="3.09918">
        <ele>565</ele>
        <time>2010-01-01T01:41:45Z</time>
      </trkpt>
      <trkpt lat="43.86023" lon="3.09884">
        <ele>564</ele>
        <time>2010-01-01T01:42:26Z</time>
      </trkpt>
      <trkpt lat="43.86081" lon="3.09813">
        <ele>567</ele>
        <time>2010-01-01T01:44:21Z</time>
      </trkpt>
      <trkpt lat="43.86104" lon="3.09759">
        <ele>567</ele>
        <time>2010-01-01T01:45:27Z</time>
      </trkpt>
      <trkpt lat="43.86124" lon="3.09682">
        <ele>559</ele>
        <time>2010-01-01T01:46:55Z</time>
      </trkpt>
      <trkpt lat="43.86176" lon="3.096">
        <ele>555</ele>
        <time>2010-01-01T01:48:52Z</time>
      </trkpt>
      <trkpt lat="43.86219" lon="3.09571">
        <ele>550</ele>
        <time>2010-01-01T01:50:03Z</time>
      </trkpt>
      <trkpt lat="43.86272" lon="3.09585">
        <ele>551</ele>
        <time>2010-01-01T01:51:23Z</time>
      </trkpt>
      <trkpt lat="43.86313" lon="3.09627">
        <ele>553</ele>
        <time>2010-01-01T01:52:38Z</time>
      </trkpt>
      <trkpt lat="43.86389" lon="3.09622">
        <ele>543</ele>
        <time>2010-01-01T01:54:32Z</time>
      </trkpt>
      <trkpt lat="43.8639" lon="3.09619">
        <ele>543</ele>
        <time>2010-01-01T01:54:35Z</time>
      </trkpt>
      <trkpt lat="43.86454" lon="3.09889">
        <ele>532</ele>
        <time>2010-01-01T01:59:38Z</time>
      </trkpt>
      <trkpt lat="43.86476" lon="3.09897">
        <ele>528</ele>
        <time>2010-01-01T02:00:12Z</time>
      </trkpt>
      <trkpt lat="43.86537" lon="3.0984">
        <ele>520</ele>
        <time>2010-01-01T02:02:00Z</time>
      </trkpt>
      <trkpt lat="43.86565" lon="3.09841">
        <ele>519</ele>
        <time>2010-01-01T02:02:42Z</time>
      </trkpt>
      <trkpt lat="43.86635" lon="3.0989">
        <ele>509</ele>
        <time>2010-01-01T02:04:38Z</time>
      </trkpt>
      <trkpt lat="43.86668" lon="3.10248">
        <ele>481</ele>
        <time>2010-01-01T02:11:04Z</time>
      </trkpt>
      <trkpt lat="43.86658" lon="3.10325">
        <ele>476</ele>
        <time>2010-01-01T02:12:28Z</time>
      </trkpt>
      <trkpt lat="43.86633" lon="3.10399">
        <ele>471</ele>
        <time>2010-01-01T02:13:55Z</time>
      </trkpt>
      <trkpt lat="43.86637" lon="3.10472">
        <ele>464</ele>
        <time>2010-01-01T02:15:13Z</time>
      </trkpt>
      <trkpt lat="43.86655" lon="3.10533">
        <ele>462</ele>
        <time>2010-01-01T02:16:24Z</time>
      </trkpt>
      <trkpt lat="43.86656" lon="3.10536">
        <ele>462</ele>
        <time>2010-01-01T02:16:27Z</time>
      </trkpt>
      <trkpt lat="43.86673" lon="3.10601">
        <ele>465</ele>
        <time>2010-01-01T02:17:41Z</time>
      </trkpt>
      <trkpt lat="43.86826" lon="3.10829">
        <ele>469</ele>
        <time>2010-01-01T02:23:14Z</time>
      </trkpt>
      <trkpt lat="43.8685" lon="3.10879">
        <ele>473</ele>
        <time>2010-01-01T02:24:18Z</time>
      </trkpt>
      <trkpt lat="43.86851" lon="3.10881">
        <ele>473</ele>
        <time>2010-01-01T02:24:20Z</time>
      </trkpt>
      <trkpt lat="43.86869" lon="3.10901">
        <ele>473</ele>
        <time>2010-01-01T02:24:55Z</time>
      </trkpt>
      <trkpt lat="43.86895" lon="3.10914">
        <ele>471</ele>
        <time>2010-01-01T02:25:36Z</time>
      </trkpt>
      <trkpt lat="43.86898" lon="3.10916">
        <ele>471</ele>
        <time>2010-01-01T02:25:40Z</time>
      </trkpt>
      <trkpt lat="43.86948" lon="3.11009">
        <ele>476</ele>
        <time>2010-01-01T02:27:45Z</time>
      </trkpt>
      <trkpt lat="43.87028" lon="3.11113">
        <ele>477</ele>
        <time>2010-01-01T02:30:27Z</time>
      </trkpt>
      <trkpt lat="43.87036" lon="3.1113">
        <ele>477</ele>
        <time>2010-01-01T02:30:49Z</time>
      </trkpt>
      <trkpt lat="43.87038" lon="3.11156">
        <ele>479</ele>
        <time>2010-01-01T02:31:17Z</time>
      </trkpt>
      <trkpt lat="43.87033" lon="3.11185">
        <ele>481</ele>
        <time>2010-01-01T02:31:49Z</time>
      </trkpt>
      <trkpt lat="43.87026" lon="3.11201">
        <ele>484</ele>
        <time>2010-01-01T02:32:09Z</time>
      </trkpt>
      <trkpt lat="43.87025" lon="3.11208">
        <ele>484</ele>
        <time>2010-01-01T02:32:16Z</time>
      </trkpt>
      <trkpt lat="43.87015" lon="3.1125">
        <ele>489</ele>
        <time>2010-01-01T02:33:04Z</time>
      </trkpt>
      <trkpt lat="43.87013" lon="3.11293">
        <ele>489</ele>
        <time>2010-01-01T02:33:50Z</time>
      </trkpt>
      <trkpt lat="43.87034" lon="3.11441">
        <ele>488</ele>
        <time>2010-01-01T02:36:31Z</time>
      </trkpt>
      <trkpt lat="43.87033" lon="3.11495">
        <ele>488</ele>
        <time>2010-01-01T02:37:28Z</time>
      </trkpt>
      <trkpt lat="43.87026" lon="3.11549">
        <ele>489</ele>
        <time>2010-01-01T02:38:28Z</time>
      </trkpt>
      <trkpt lat="43.87009" lon="3.11612">
        <ele>494</ele>
        <time>2010-01-01T02:39:39Z</time>
      </trkpt>
      <trkpt lat="43.87008" lon="3.11629">
        <ele>495</ele>
        <time>2010-01-01T02:39:57Z</time>
      </trkpt>
      <trkpt lat="43.87044" lon="3.11732">
        <ele>499</ele>
        <time>2010-01-01T02:42:00Z</time>
      </trkpt>
      <trkpt lat="43.87076" lon="3.11789">
        <ele>499</ele>
        <time>2010-01-01T02:43:17Z</time>
      </trkpt>
      <trkpt lat="43.87117" lon="3.11834">
        <ele>498</ele>
        <time>2010-01-01T02:44:34Z</time>
      </trkpt>
      <trkpt lat="43.87145" lon="3.11853">
        <ele>497</ele>
        <time>2010-01-01T02:45:20Z</time>
      </trkpt>
      <trkpt lat="43.87147" lon="3.11853">
        <ele>496</ele>
        <time>2010-01-01T02:45:23Z</time>
      </trkpt>
      <trkpt lat="43.87262" lon="3.11916">
        <ele>489</ele>
        <time>2010-01-01T02:48:26Z</time>
      </trkpt>
      <trkpt lat="43.87279" lon="3.1194">
        <ele>492</ele>
        <time>2010-01-01T02:49:02Z</time>
      </trkpt>
      <trkpt lat="43.87293" lon="3.11954">
        <ele>492</ele>
        <time>2010-01-01T02:49:28Z</time>
      </trkpt>
      <trkpt lat="43.87312" lon="3.11956">
        <ele>487</ele>
        <time>2010-01-01T02:49:56Z</time>
      </trkpt>
      <trkpt lat="43.87329" lon="3.11977">
        <ele>485</ele>
        <time>2010-01-01T02:50:31Z</time>
      </trkpt>
      <trkpt lat="43.87385" lon="3.12058">
        <ele>486</ele>
        <time>2010-01-01T02:52:30Z</time>
      </trkpt>
      <trkpt lat="43.87418" lon="3.12135">
        <ele>481</ele>
        <time>2010-01-01T02:54:06Z</time>
      </trkpt>
      <trkpt lat="43.87459" lon="3.12217">
        <ele>479</ele>
        <time>2010-01-01T02:55:52Z</time>
      </trkpt>
      <trkpt lat="43.87475" lon="3.12228">
        <ele>476</ele>
        <time>2010-01-01T02:56:19Z</time>
      </trkpt>
      <trkpt lat="43.87504" lon="3.1224">
        <ele>471</ele>
        <time>2010-01-01T02:57:04Z</time>
      </trkpt>
      <trkpt lat="43.8754" lon="3.12235">
        <ele>472</ele>
        <time>2010-01-01T02:57:57Z</time>
      </trkpt>
      <trkpt lat="43.87541" lon="3.12234">
        <ele>472</ele>
        <time>2010-01-01T02:57:59Z</time>
      </trkpt>
      <trkpt lat="43.87574" lon="3.12225">
        <ele>473</ele>
        <time>2010-01-01T02:58:49Z</time>
      </trkpt>
      <trkpt lat="43.87615" lon="3.12222">
        <ele>475</ele>
        <time>2010-01-01T02:59:50Z</time>
      </trkpt>
    </trkseg>
  </trk>
</gpx>